Cannington, Canada
Current Conditions -  °F | °C
As of 9:00 PM on Thursday 18 Dec 2014 (Local Time) from CYOO Reporting Station
Overcast Overcast  
Wind Chill: 15°   Ceiling: 1400
Heat Index: 25°   Visibility: 9mi
Dew Point: 19°   Wind: 10mph
Humidity: 80%   Direction: 330°NNW
Pressure: 30.09"   Gusts: 18mph
Location:  44.35°N, 79.03°W
Report Text: CYOO 190200Z AUTO 33009G16KT 9SM OVC014 M04/M07 A3009 RMK SLP196
Loading
Personal Weather Stations






























Interactive Weather Map New forecast layout! Learn more

10-Day Weather Forecast

Advertisements
Track Severe Weather on mobile